Time;durP1;ratioP1;P1;durP2;ratioP2;P2;SDS_P1;SDS_P2;PMS_P1;PMS_P2;Temp;Humidity;BMP_temperature;BMP_pressure;BME280_temperature;BME280_humidity;BME280_pressure;Samples;Min_cycle;Max_cycle;Signal;HPM_P1;HPM_P2
2023/11/09 00:01:36;;;;;;;1999.90;999.90;;;10.70;99.90;;;;;;5074176;28;20226;-69
2023/11/09 00:04:03;;;;;;;1999.90;999.90;;;10.80;99.90;;;;;;5074034;28;20395;-69
2023/11/09 00:06:29;;;;;;;1999.90;999.90;;;10.70;99.90;;;;;;5074126;28;20504;-69
2023/11/09 00:08:55;;;;;;;1999.90;999.90;;;10.80;99.90;;;;;;5074062;28;20475;-69
2023/11/09 00:11:20;;;;;;;1999.90;999.90;;;10.80;99.90;;;;;;5074213;28;20531;-68
2023/11/09 00:13:46;;;;;;;1999.90;999.90;;;10.90;99.90;;;;;;5073839;28;20645;-68
2023/11/09 00:16:13;;;;;;;1999.90;999.90;;;10.90;99.90;;;;;;5074178;28;20205;-69
2023/11/09 00:18:39;;;;;;;1999.90;999.90;;;10.80;99.90;;;;;;5073909;28;20416;-69
2023/11/09 00:21:05;;;;;;;1999.90;999.90;;;10.80;99.90;;;;;;5074027;28;20405;-69
2023/11/09 00:23:31;;;;;;;1999.90;999.90;;;10.90;99.90;;;;;;5073566;28;20459;-68
2023/11/09 00:25:58;;;;;;;1999.90;999.90;;;10.80;99.90;;;;;;5073773;28;20178;-69
2023/11/09 00:28:24;;;;;;;1999.90;999.90;;;10.80;99.90;;;;;;5073725;28;20776;-69
2023/11/09 00:30:50;;;;;;;1999.90;999.90;;;10.80;99.90;;;;;;5073666;28;20935;-69
2023/11/09 00:33:16;;;;;;;1999.90;999.90;;;10.80;99.90;;;;;;5073463;28;20440;-69
2023/11/09 00:35:43;;;;;;;1999.90;999.90;;;10.70;99.90;;;;;;5073568;28;20202;-69
2023/11/09 00:38:14;;;;;;;1999.90;999.90;;;10.70;99.90;;;;;;5073563;28;20257;-69
2023/11/09 00:40:40;;;;;;;1999.90;999.90;;;10.90;99.90;;;;;;5073568;28;20927;-69
2023/11/09 00:43:06;;;;;;;1999.90;999.90;;;10.70;99.90;;;;;;5073137;28;20447;-69
2023/11/09 00:45:34;;;;;;;1999.90;999.90;;;10.70;99.90;;;;;;5073381;28;20941;-69
2023/11/09 00:48:03;;;;;;;1999.90;999.90;;;10.70;99.90;;;;;;5073251;28;20182;-69
2023/11/09 00:50:29;;;;;;;1999.90;999.90;;;10.70;99.90;;;;;;5073424;28;20774;-69
2023/11/09 00:52:55;;;;;;;1999.90;999.90;;;10.60;99.90;;;;;;5073053;28;20422;-68
2023/11/09 00:55:20;;;;;;;1999.90;999.90;;;10.60;99.90;;;;;;5073081;28;20593;-69
2023/11/09 00:57:46;;;;;;;1999.90;999.90;;;10.80;99.90;;;;;;5073287;28;20184;-69
2023/11/09 01:00:12;;;;;;;1999.90;999.90;;;10.70;99.90;;;;;;5073097;28;20181;-69
2023/11/09 01:02:38;;;;;;;1999.90;999.90;;;10.70;99.90;;;;;;5072828;28;20209;-69
2023/11/09 01:05:07;;;;;;;1999.90;999.90;;;10.80;99.90;;;;;;5072897;28;20408;-69
2023/11/09 01:07:32;;;;;;;1999.90;999.90;;;10.80;99.90;;;;;;5072780;28;20440;-69
2023/11/09 01:09:58;;;;;;;1999.90;999.90;;;10.80;99.90;;;;;;5072843;28;20901;-69
2023/11/09 01:12:25;;;;;;;1999.90;999.90;;;10.80;99.90;;;;;;5072698;28;20228;-69
2023/11/09 01:14:52;;;;;;;1999.90;999.90;;;10.70;99.90;;;;;;5073085;28;20445;-69
2023/11/09 01:17:17;;;;;;;1999.90;999.90;;;10.80;99.90;;;;;;5072823;28;20437;-69
2023/11/09 01:19:43;;;;;;;1999.90;999.90;;;10.80;99.90;;;;;;5072744;28;20412;-69
2023/11/09 01:22:08;;;;;;;1999.90;999.90;;;10.90;99.90;;;;;;5072584;28;20195;-69
2023/11/09 01:24:34;;;;;;;1999.90;999.90;;;10.80;99.90;;;;;;5072470;28;20163;-69
2023/11/09 01:27:00;;;;;;;1999.90;999.90;;;10.90;99.90;;;;;;5072527;28;20221;-69
2023/11/09 01:29:25;;;;;;;1999.90;999.90;;;10.90;99.90;;;;;;5072561;28;20184;-69
2023/11/09 01:31:51;;;;;;;1999.90;999.90;;;11.00;99.90;;;;;;5072536;28;20163;-69
2023/11/09 01:34:18;;;;;;;1999.90;999.90;;;11.00;99.90;;;;;;5072423;28;20175;-70
2023/11/09 01:36:43;;;;;;;1999.90;999.90;;;11.00;99.90;;;;;;5072422;28;20199;-69
2023/11/09 01:39:13;;;;;;;1999.90;999.90;;;11.00;99.90;;;;;;5072440;28;20767;-69
2023/11/09 01:41:41;;;;;;;1999.90;999.90;;;11.10;99.90;;;;;;5072482;28;20228;-69
2023/11/09 01:44:07;;;;;;;1999.90;999.90;;;11.10;99.90;;;;;;5072181;28;20496;-69
2023/11/09 01:46:33;;;;;;;1999.90;999.90;;;11.10;99.90;;;;;;5072375;28;20507;-69
2023/11/09 01:48:59;;;;;;;1999.90;999.90;;;11.10;99.90;;;;;;5072314;28;20193;-69
2023/11/09 01:51:26;;;;;;;1999.90;999.90;;;11.10;99.90;;;;;;5072157;28;20174;-69
2023/11/09 01:53:52;;;;;;;1999.90;999.90;;;11.10;99.90;;;;;;5071926;28;20417;-69
2023/11/09 01:56:19;;;;;;;1999.90;999.90;;;11.20;99.90;;;;;;5071960;28;20536;-69
2023/11/09 01:58:46;;;;;;;1999.90;999.90;;;11.20;99.90;;;;;;5072097;28;20408;-69
2023/11/09 02:01:13;;;;;;;1999.90;999.90;;;11.20;99.90;;;;;;5071990;28;20416;-69
2023/11/09 02:03:43;;;;;;;1999.90;999.90;;;11.20;99.90;;;;;;5071754;28;20452;-69
2023/11/09 02:06:09;;;;;;;1999.90;999.90;;;11.20;99.90;;;;;;5071901;28;20429;-70
2023/11/09 02:08:36;;;;;;;1999.90;999.90;;;11.20;99.90;;;;;;5071909;28;20413;-69
2023/11/09 02:11:02;;;;;;;1999.90;999.90;;;11.20;99.90;;;;;;5071950;28;20422;-69
2023/11/09 02:13:28;;;;;;;1999.90;999.90;;;11.20;99.90;;;;;;5071681;28;20401;-69
2023/11/09 02:15:55;;;;;;;1999.90;999.90;;;11.30;99.90;;;;;;5071814;28;20195;-70
2023/11/09 02:18:22;;;;;;;1999.90;999.90;;;11.30;99.90;;;;;;5071238;28;20185;-69
2023/11/09 02:20:52;;;;;;;1999.90;999.90;;;11.40;99.90;;;;;;5071739;28;20418;-69
2023/11/09 02:23:20;;;;;;;1999.90;999.90;;;11.40;99.90;;;;;;5071456;28;20467;-69
2023/11/09 02:25:47;;;;;;;1999.90;999.90;;;11.40;99.90;;;;;;5071880;28;20424;-70
2023/11/09 02:28:13;;;;;;;1999.90;999.90;;;11.40;99.90;;;;;;5071664;28;20962;-69
2023/11/09 02:30:39;;;;;;;1999.90;999.90;;;11.60;99.90;;;;;;5071756;28;20402;-70
2023/11/09 02:33:06;;;;;;;1999.90;999.90;;;11.40;99.90;;;;;;5071465;28;20420;-69
2023/11/09 02:35:32;;;;;;;1999.90;999.90;;;11.50;99.90;;;;;;5071519;28;20230;-69
2023/11/09 02:37:57;;;;;;;1999.90;999.90;;;11.50;99.90;;;;;;5071854;28;20429;-70
2023/11/09 02:40:23;;;;;;;1999.90;999.90;;;11.50;99.90;;;;;;5071601;28;20437;-70
2023/11/09 02:42:48;;;;;;;1999.90;999.90;;;11.50;99.90;;;;;;5071425;28;20709;-69
2023/11/09 02:45:14;;;;;;;1999.90;999.90;;;11.60;99.90;;;;;;5071507;28;20197;-69
2023/11/09 02:47:40;;;;;;;1999.90;999.90;;;11.60;99.90;;;;;;5071645;28;20178;-69
2023/11/09 02:50:06;;;;;;;1999.90;999.90;;;11.60;99.90;;;;;;5071392;28;20206;-69
2023/11/09 02:52:32;;;;;;;1999.90;999.90;;;11.50;99.90;;;;;;5071345;28;20440;-69
2023/11/09 02:54:59;;;;;;;1999.90;999.90;;;11.50;99.90;;;;;;5071391;28;20413;-69
2023/11/09 02:57:27;;;;;;;1999.90;999.90;;;11.60;99.90;;;;;;5071389;28;20205;-69
2023/11/09 02:59:53;;;;;;;1999.90;999.90;;;11.50;99.90;;;;;;5071322;28;20412;-69
2023/11/09 03:02:19;;;;;;;1999.90;999.90;;;11.60;99.90;;;;;;5071078;28;20445;-70
2023/11/09 03:04:46;;;;;;;1999.90;999.90;;;11.50;99.90;;;;;;5071318;28;20816;-69
2023/11/09 03:07:11;;;;;;;1999.90;999.90;;;11.50;99.90;;;;;;5071261;28;20280;-69
2023/11/09 03:09:37;;;;;;;1999.90;999.90;;;11.50;99.90;;;;;;5071676;28;20494;-69
2023/11/09 03:12:07;;;;;;;1999.90;999.90;;;11.60;99.90;;;;;;5071418;28;20231;-69
2023/11/09 03:14:33;;;;;;;1999.90;999.90;;;11.60;99.90;;;;;;5071211;28;20178;-69
2023/11/09 03:17:07;;;;;;;1999.90;999.90;;;11.60;99.90;;;;;;5071253;28;20429;-68
2023/11/09 03:19:33;;;;;;;1999.90;999.90;;;11.50;99.90;;;;;;5071162;28;20408;-69
2023/11/09 03:21:58;;;;;;;1999.90;999.90;;;11.60;99.90;;;;;;5071159;28;20451;-69
2023/11/09 03:24:24;;;;;;;1999.90;999.90;;;11.50;99.90;;;;;;5071086;28;20183;-69
2023/11/09 03:26:50;;;;;;;1999.90;999.90;;;11.50;99.90;;;;;;5071140;28;20187;-69
2023/11/09 03:29:16;;;;;;;1999.90;999.90;;;11.50;99.90;;;;;;5073533;28;20183;-69
2023/11/09 03:31:42;;;;;;;1999.90;999.90;;;11.50;99.90;;;;;;5074956;28;20254;-69
2023/11/09 03:34:08;;;;;;;1999.90;999.90;;;11.50;99.90;;;;;;5074726;28;20262;-69
2023/11/09 03:36:34;;;;;;;1999.90;999.90;;;11.60;99.90;;;;;;5074714;28;20984;-69
2023/11/09 03:39:00;;;;;;;1999.90;999.90;;;11.60;99.90;;;;;;5074890;28;20179;-69
2023/11/09 03:41:26;;;;;;;1999.90;999.90;;;11.50;99.90;;;;;;5074573;28;20890;-69
2023/11/09 03:43:53;;;;;;;1999.90;999.90;;;11.50;99.90;;;;;;5074373;28;20556;-69
2023/11/09 03:46:21;;;;;;;1999.90;999.90;;;11.50;99.90;;;;;;5074462;28;20244;-69
2023/11/09 03:48:47;;;;;;;1999.90;999.90;;;11.50;99.90;;;;;;5074472;28;20507;-69
2023/11/09 03:51:12;;;;;;;1999.90;999.90;;;11.60;99.90;;;;;;5074454;28;20480;-69
2023/11/09 03:53:38;;;;;;;1999.90;999.90;;;11.60;99.90;;;;;;5074235;28;20170;-69
2023/11/09 03:56:04;;;;;;;1999.90;999.90;;;11.50;99.90;;;;;;5074285;28;20282;-69
2023/11/09 03:58:30;;;;;;;1999.90;999.90;;;11.60;99.90;;;;;;5074287;28;20833;-69
2023/11/09 04:00:57;;;;;;;1999.90;999.90;;;11.60;99.90;;;;;;5074345;28;20420;-69
2023/11/09 04:03:23;;;;;;;1999.90;999.90;;;11.60;99.90;;;;;;5074169;28;20694;-69
2023/11/09 04:05:48;;;;;;;1999.90;999.90;;;11.60;99.90;;;;;;5074250;28;20501;-69
2023/11/09 04:08:14;;;;;;;1999.90;999.90;;;11.60;99.90;;;;;;5073548;28;20187;-69
2023/11/09 04:10:40;;;;;;;1999.90;999.90;;;11.60;99.90;;;;;;5073978;28;20183;-69
2023/11/09 04:13:05;;;;;;;1999.90;999.90;;;11.60;99.90;;;;;;5073879;28;20179;-69
2023/11/09 04:15:31;;;;;;;1999.90;999.90;;;11.60;99.90;;;;;;5073897;28;20940;-69
2023/11/09 04:17:56;;;;;;;1999.90;999.90;;;11.50;99.90;;;;;;5074221;28;20192;-69
2023/11/09 04:20:22;;;;;;;1999.90;999.90;;;11.60;99.90;;;;;;5074349;28;20174;-69
2023/11/09 04:22:48;;;;;;;1999.90;999.90;;;11.60;99.90;;;;;;5073962;28;20290;-68
2023/11/09 04:25:14;;;;;;;1999.90;999.90;;;11.30;99.90;;;;;;5074051;28;20441;-69
2023/11/09 04:27:43;;;;;;;1999.90;999.90;;;11.50;99.90;;;;;;5074410;28;20176;-69
2023/11/09 04:30:15;;;;;;;1999.90;999.90;;;11.60;99.90;;;;;;5074252;28;20412;-69
2023/11/09 04:32:41;;;;;;;1999.90;999.90;;;11.60;99.90;;;;;;5073719;28;20416;-69
2023/11/09 04:35:08;;;;;;;1999.90;999.90;;;11.60;99.90;;;;;;5073356;28;20437;-69
2023/11/09 04:37:35;;;;;;;1999.90;999.90;;;11.60;99.90;;;;;;5074019;28;20833;-69
2023/11/09 04:40:12;;;;;;;1999.90;999.90;;;11.50;99.90;;;;;;5073525;28;20427;-68
2023/11/09 04:42:39;;;;;;;1999.90;999.90;;;11.50;99.90;;;;;;5073953;28;20444;-69
2023/11/09 04:45:11;;;;;;;1999.90;999.90;;;11.50;99.90;;;;;;5073896;28;20463;-69
2023/11/09 04:47:41;;;;;;;1999.90;999.90;;;11.50;99.90;;;;;;5074344;28;20413;-69
2023/11/09 04:50:17;;;;;;;1999.90;999.90;;;11.50;99.90;;;;;;5074017;28;20442;-69
2023/11/09 04:52:56;;;;;;;1999.90;999.90;;;11.50;99.90;;;;;;5073608;28;20407;-68
2023/11/09 04:55:31;;;;;;;1999.90;999.90;;;11.10;99.90;;;;;;5073800;28;20807;-69
2023/11/09 05:08:53;;;;;;;1999.90;999.90;;;11.00;99.90;;;;;;5073308;28;20412;-68
2023/11/09 05:11:19;;;;;;;1999.90;999.90;;;10.90;99.90;;;;;;5073056;28;20412;-68
2023/11/09 05:13:44;;;;;;;1999.90;999.90;;;10.90;99.90;;;;;;5072786;28;20231;-69
2023/11/09 05:16:10;;;;;;;1999.90;999.90;;;10.80;99.90;;;;;;5071846;28;20210;-68
2023/11/09 05:18:37;;;;;;;1999.90;999.90;;;10.70;99.90;;;;;;5072854;28;20257;-68
2023/11/09 05:21:03;;;;;;;1999.90;999.90;;;10.80;99.90;;;;;;5072925;28;20625;-68
2023/11/09 05:23:29;;;;;;;1999.90;999.90;;;10.80;99.90;;;;;;5072536;28;20550;-68
2023/11/09 05:25:54;;;;;;;1999.90;999.90;;;10.80;99.90;;;;;;5072814;28;20425;-67
2023/11/09 05:28:21;;;;;;;1999.90;999.90;;;10.70;99.90;;;;;;5072730;28;20749;-68
2023/11/09 05:30:50;;;;;;;1999.90;999.90;;;10.80;99.90;;;;;;5072795;28;20236;-68
2023/11/09 05:33:18;;;;;;;1999.90;999.90;;;10.70;99.90;;;;;;5072501;28;20443;-68
2023/11/09 05:35:44;;;;;;;1999.90;999.90;;;10.70;99.90;;;;;;5072634;28;20438;-69
2023/11/09 05:38:10;;;;;;;1999.90;999.90;;;10.70;99.90;;;;;;5072995;28;20404;-68
2023/11/09 05:40:36;;;;;;;1999.90;999.90;;;10.70;99.90;;;;;;5072580;28;20409;-69
2023/11/09 05:43:02;;;;;;;1999.90;999.90;;;10.70;99.90;;;;;;5072302;28;20451;-69
2023/11/09 05:45:27;;;;;;;1999.90;999.90;;;10.70;99.90;;;;;;5073851;28;20493;-69
2023/11/09 05:47:53;;;;;;;1999.90;999.90;;;10.70;99.90;;;;;;5073350;28;20178;-68
2023/11/09 05:50:19;;;;;;;1999.90;999.90;;;10.60;99.90;;;;;;5072853;28;20720;-69
2023/11/09 05:52:45;;;;;;;1999.90;999.90;;;10.70;99.90;;;;;;5071645;28;20435;-68
2023/11/09 05:55:11;;;;;;;1999.90;999.90;;;10.60;99.90;;;;;;5072414;28;20204;-68
2023/11/09 05:57:37;;;;;;;1999.90;999.90;;;10.60;99.90;;;;;;5072565;28;20186;-69
2023/11/09 06:00:05;;;;;;;1999.90;999.90;;;10.70;99.90;;;;;;5072630;28;20178;-68
2023/11/09 06:02:31;;;;;;;1999.90;999.90;;;10.70;99.90;;;;;;5071886;28;20451;-68
2023/11/09 06:04:57;;;;;;;1999.90;999.90;;;10.80;99.90;;;;;;5072247;28;20412;-68
2023/11/09 06:07:23;;;;;;;1999.90;999.90;;;10.80;99.90;;;;;;5072289;28;20450;-69
2023/11/09 06:09:48;;;;;;;1999.90;999.90;;;10.80;99.90;;;;;;5072218;28;20234;-69
2023/11/09 06:12:15;;;;;;;1999.90;999.90;;;10.80;99.90;;;;;;5072084;28;20411;-69
2023/11/09 06:14:41;;;;;;;1999.90;999.90;;;10.70;99.90;;;;;;5072086;28;20238;-68
2023/11/09 06:17:07;;;;;;;1999.90;999.90;;;10.70;99.90;;;;;;5071999;28;20922;-68
2023/11/09 06:19:33;;;;;;;1999.90;999.90;;;10.70;99.90;;;;;;5072050;28;20463;-68
2023/11/09 06:21:58;;;;;;;1999.90;999.90;;;10.70;99.90;;;;;;5071940;28;20197;-68
2023/11/09 06:24:24;;;;;;;1999.90;999.90;;;10.70;99.90;;;;;;5071687;28;20909;-69
2023/11/09 06:26:51;;;;;;;1999.90;999.90;;;10.70;99.90;;;;;;5071811;28;20537;-69
2023/11/09 06:29:17;;;;;;;1999.90;999.90;;;10.80;99.90;;;;;;5071897;28;20166;-69
2023/11/09 06:31:43;;;;;;;1999.90;999.90;;;10.80;99.90;;;;;;5071752;28;20844;-69
2023/11/09 06:34:14;;;;;;;1999.90;999.90;;;10.80;99.90;;;;;;5070490;28;20424;-68
2023/11/09 06:36:43;;;;;;;1999.90;999.90;;;10.80;99.90;;;;;;5071581;28;20249;-69
2023/11/09 06:39:16;;;;;;;1999.90;999.90;;;10.80;99.90;;;;;;5063253;28;20456;-69
2023/11/09 06:41:45;;;;;;;1999.90;999.90;;;10.90;99.90;;;;;;5071554;28;20864;-69
2023/11/09 06:44:12;;;;;;;1999.90;999.90;;;10.80;99.90;;;;;;5071530;28;20408;-69
2023/11/09 06:46:38;;;;;;;1999.90;999.90;;;10.80;99.90;;;;;;5071594;28;20424;-69
2023/11/09 06:49:06;;;;;;;1999.90;999.90;;;10.90;99.90;;;;;;5071576;28;20779;-69
2023/11/09 06:51:32;;;;;;;1999.90;999.90;;;11.00;99.90;;;;;;5071865;28;20893;-69
2023/11/09 06:53:58;;;;;;;1999.90;999.90;;;11.00;99.90;;;;;;5071474;28;20892;-69
2023/11/09 06:56:23;;;;;;;1999.90;999.90;;;11.00;99.90;;;;;;5071476;28;20449;-69
2023/11/09 06:58:49;;;;;;;1999.90;999.90;;;11.00;99.90;;;;;;5071582;28;20567;-69
2023/11/09 07:01:14;;;;;;;1999.90;999.90;;;11.10;99.90;;;;;;5071648;28;20262;-68
2023/11/09 07:03:40;;;;;;;1999.90;999.90;;;11.10;99.90;;;;;;5073045;28;20250;-68
2023/11/09 07:06:06;;;;;;;1999.90;999.90;;;11.10;99.90;;;;;;5075451;28;20268;-69
2023/11/09 07:08:32;;;;;;;1999.90;999.90;;;11.10;99.90;;;;;;5075508;28;20203;-69
2023/11/09 07:10:59;;;;;;;1999.90;999.90;;;11.00;99.90;;;;;;5075464;28;20409;-68
2023/11/09 07:13:25;;;;;;;1999.90;999.90;;;11.00;99.90;;;;;;5075185;28;20420;-69
2023/11/09 07:15:52;;;;;;;1999.90;999.90;;;11.10;99.90;;;;;;5075208;28;20467;-69
2023/11/09 07:18:18;;;;;;;1999.90;999.90;;;11.20;99.90;;;;;;5075296;28;20948;-69
2023/11/09 07:20:44;;;;;;;1999.90;999.90;;;11.20;99.90;;;;;;5075216;28;20471;-69
2023/11/09 07:23:11;;;;;;;1999.90;999.90;;;11.30;99.90;;;;;;5074807;28;20533;-69
2023/11/09 07:25:36;;;;;;;1999.90;999.90;;;11.20;99.90;;;;;;5075081;28;20181;-69
2023/11/09 07:28:08;;;;;;;1999.90;999.90;;;11.30;99.90;;;;;;5074199;28;20939;-68
2023/11/09 07:30:33;;;;;;;1999.90;999.90;;;11.30;99.90;;;;;;5074150;28;20198;-69
2023/11/09 07:33:00;;;;;;;1999.90;999.90;;;11.30;99.90;;;;;;5074592;28;20788;-69
2023/11/09 07:35:27;;;;;;;1999.90;999.90;;;11.30;99.90;;;;;;5074760;28;20178;-69
2023/11/09 07:37:53;;;;;;;1999.90;999.90;;;11.30;99.90;;;;;;5074989;28;20883;-68
2023/11/09 07:40:19;;;;;;;1999.90;999.90;;;11.40;99.90;;;;;;5074831;28;20417;-70
2023/11/09 07:42:45;;;;;;;1999.90;999.90;;;11.40;99.90;;;;;;5074606;28;20199;-69
2023/11/09 07:45:11;;;;;;;1999.90;999.90;;;11.50;99.90;;;;;;5074967;28;20260;-69
2023/11/09 07:47:37;;;;;;;1999.90;999.90;;;11.40;99.90;;;;;;5074761;28;20865;-70
2023/11/09 07:50:04;;;;;;;1999.90;999.90;;;11.40;99.90;;;;;;5074564;28;20178;-69
2023/11/09 07:52:31;;;;;;;1999.90;999.90;;;11.40;99.90;;;;;;5074506;28;20420;-70
2023/11/09 07:54:56;;;;;;;1999.90;999.90;;;11.50;99.90;;;;;;5074818;28;20411;-70
2023/11/09 07:57:22;;;;;;;1999.90;999.90;;;11.50;99.90;;;;;;5074846;28;20425;-69
2023/11/09 07:59:47;;;;;;;1999.90;999.90;;;11.50;99.90;;;;;;5074960;28;20167;-69
2023/11/09 08:02:13;;;;;;;1999.90;999.90;;;11.50;99.90;;;;;;5074591;28;20558;-68
2023/11/09 08:04:41;;;;;;;1999.90;999.90;;;11.50;99.90;;;;;;5074544;28;20176;-68
2023/11/09 08:07:08;;;;;;;1999.90;999.90;;;11.40;99.90;;;;;;5074443;28;20599;-68
2023/11/09 08:09:36;;;;;;;1999.90;999.90;;;11.10;99.90;;;;;;5074633;28;20415;-69
2023/11/09 08:12:01;;;;;;;1999.90;999.90;;;10.80;99.90;;;;;;5072765;28;20455;-69
2023/11/09 08:14:27;;;;;;;1999.90;999.90;;;10.50;99.90;;;;;;5072286;28;20463;-68
2023/11/09 08:16:52;;;;;;;1999.90;999.90;;;10.40;99.90;;;;;;5072628;28;20205;-69
2023/11/09 08:19:18;;;;;;;1999.90;999.90;;;10.40;99.90;;;;;;5073801;28;20182;-69
2023/11/09 08:21:44;;;;;;;1999.90;999.90;;;10.20;99.90;;;;;;5073898;28;20638;-69
2023/11/09 08:24:09;;;;;;;1999.90;999.90;;;10.20;99.90;;;;;;5073545;28;20678;-69
2023/11/09 08:26:35;;;;;;;1999.90;999.90;;;10.20;99.90;;;;;;5073801;28;20680;-69
2023/11/09 08:29:00;;;;;;;1999.90;999.90;;;10.20;99.90;;;;;;5073812;28;20169;-69
2023/11/09 08:31:26;;;;;;;1999.90;999.90;;;10.30;99.90;;;;;;5073697;28;20235;-69
2023/11/09 08:33:54;;;;;;;1999.90;999.90;;;10.30;99.90;;;;;;5073153;28;20182;-70
2023/11/09 08:36:20;;;;;;;1999.90;999.90;;;10.30;99.90;;;;;;5074224;28;20290;-70
2023/11/09 08:38:46;;;;;;;1999.90;999.90;;;10.30;99.90;;;;;;5073680;28;20895;-70
2023/11/09 08:41:11;;;;;;;1999.90;999.90;;;10.40;99.90;;;;;;5073798;28;20232;-69
2023/11/09 08:43:37;;;;;;;1999.90;999.90;;;10.30;99.90;;;;;;5073451;28;20200;-69
2023/11/09 08:46:03;;;;;;;1999.90;999.90;;;10.40;99.90;;;;;;5073777;28;20271;-70
2023/11/09 08:48:29;;;;;;;1999.90;999.90;;;10.30;99.90;;;;;;5073306;28;20169;-69
2023/11/09 08:50:56;;;;;;;1999.90;999.90;;;10.30;99.90;;;;;;5073726;28;20408;-69
2023/11/09 08:53:22;;;;;;;1999.90;999.90;;;10.20;99.90;;;;;;5073517;28;20403;-69
2023/11/09 08:55:48;;;;;;;1999.90;999.90;;;10.20;99.90;;;;;;5073077;28;20447;-69
2023/11/09 08:58:14;;;;;;;1999.90;999.90;;;10.20;99.90;;;;;;5073232;28;20416;-69
2023/11/09 09:00:40;;;;;;;1999.90;999.90;;;10.30;99.90;;;;;;5073206;28;20524;-69
2023/11/09 09:03:07;;;;;;;1999.90;999.90;;;10.40;99.90;;;;;;5072829;28;20459;-69
2023/11/09 09:05:33;;;;;;;1999.90;999.90;;;10.30;99.90;;;;;;5073033;28;20190;-69
2023/11/09 09:08:00;;;;;;;1999.90;999.90;;;10.50;99.90;;;;;;5073198;28;20498;-70
2023/11/09 09:10:27;;;;;;;1999.90;999.90;;;10.30;99.90;;;;;;5073753;28;20167;-69
2023/11/09 09:12:56;;;;;;;1999.90;999.90;;;10.30;99.90;;;;;;5073562;28;20400;-70
2023/11/09 09:15:23;;;;;;;1999.90;999.90;;;10.40;99.90;;;;;;5073268;28;20482;-70
2023/11/09 09:17:50;;;;;;;1999.90;999.90;;;10.30;99.90;;;;;;5073242;28;20409;-70
2023/11/09 09:20:19;;;;;;;1999.90;999.90;;;10.30;99.90;;;;;;5050196;28;20421;-70
2023/11/09 09:22:48;;;;;;;1999.90;999.90;;;10.50;99.90;;;;;;5052432;28;20883;-69
2023/11/09 09:25:16;;;;;;;1999.90;999.90;;;10.40;99.90;;;;;;5052515;28;20401;-70
2023/11/09 09:27:43;;;;;;;1999.90;999.90;;;10.60;99.90;;;;;;5053707;28;20406;-70
2023/11/09 09:30:18;;;;;;;1999.90;999.90;;;10.60;99.90;;;;;;5054825;28;20844;-70
2023/11/09 09:32:48;;;;;;;1999.90;999.90;;;10.70;99.90;;;;;;5054559;28;20903;-70
2023/11/09 09:35:15;;;;;;;1999.90;999.90;;;10.70;99.90;;;;;;5054378;28;20497;-70
2023/11/09 09:37:42;;;;;;;1999.90;999.90;;;10.00;99.90;;;;;;5063155;28;20947;-69
2023/11/09 09:40:19;;;;;;;1999.90;999.90;;;10.70;99.90;;;;;;5070936;28;20678;-71
2023/11/09 09:42:47;;;;;;;1999.90;999.90;;;10.70;99.90;;;;;;5069355;28;20456;-71
2023/11/09 09:45:26;;;;;;;1999.90;999.90;;;10.70;99.90;;;;;;5071408;28;20408;-70
2023/11/09 09:47:54;;;;;;;1999.90;999.90;;;10.70;99.90;;;;;;5072992;28;20416;-70
2023/11/09 09:50:24;;;;;;;1999.90;999.90;;;10.60;99.90;;;;;;5070461;28;20444;-70
2023/11/09 09:52:57;;;;;;;1999.90;999.90;;;10.50;99.90;;;;;;5071037;28;20420;-71
2023/11/09 09:55:27;;;;;;;1999.90;999.90;;;10.70;99.90;;;;;;5072045;28;20532;-69
2023/11/09 09:57:59;;;;;;;1999.90;999.90;;;10.60;99.90;;;;;;5051756;28;20432;-71
2023/11/09 10:00:26;;;;;;;1999.90;999.90;;;10.60;99.90;;;;;;5071494;28;20420;-70
2023/11/09 10:02:57;;;;;;;1999.90;999.90;;;10.70;99.90;;;;;;5074789;28;20466;-67
2023/11/09 10:05:25;;;;;;;1999.90;999.90;;;10.40;99.90;;;;;;5075489;28;20409;-71
2023/11/09 10:08:12;;;;;;;1999.90;999.90;;;11.00;99.90;;;;;;5071830;28;20423;-70
2023/11/09 10:10:41;;;;;;;1999.90;999.90;;;11.00;99.90;;;;;;5071554;28;20423;-69
2023/11/09 10:13:10;;;;;;;1999.90;999.90;;;11.00;99.90;;;;;;5068537;28;20408;-69
2023/11/09 10:15:37;;;;;;;1999.90;999.90;;;11.10;99.90;;;;;;5067354;28;20443;-70
2023/11/09 10:18:04;;;;;;;1999.90;999.90;;;11.10;99.90;;;;;;5066554;28;20432;-66
2023/11/09 10:20:32;;;;;;;1999.90;999.90;;;11.00;99.90;;;;;;5067694;28;20420;-69
2023/11/09 10:22:58;;;;;;;1999.90;999.90;;;10.90;99.90;;;;;;5066746;28;20449;-69
2023/11/09 10:25:29;;;;;;;1999.90;999.90;;;10.80;99.90;;;;;;5068245;28;20441;-69
2023/11/09 10:28:07;;;;;;;1999.90;999.90;;;11.10;99.90;;;;;;5072332;28;20404;-67
2023/11/09 10:30:45;;;;;;;1999.90;999.90;;;11.10;99.90;;;;;;5069241;28;20919;-68
2023/11/09 10:33:18;;;;;;;1999.90;999.90;;;11.10;99.90;;;;;;5067097;28;20418;-67
2023/11/09 10:35:45;;;;;;;1999.90;999.90;;;11.20;99.90;;;;;;5067698;28;20441;-68
2023/11/09 10:38:12;;;;;;;1999.90;999.90;;;11.10;99.90;;;;;;5068219;28;20445;-68
2023/11/09 10:40:43;;;;;;;1999.90;999.90;;;11.30;99.90;;;;;;5107889;23;20655;-68
2023/11/09 10:43:11;;;;;;;1999.90;999.90;;;11.20;99.90;;;;;;5024519;28;20462;-68
2023/11/09 10:45:38;;;;;;;1999.90;999.90;;;11.10;99.90;;;;;;5027256;28;20790;-68
2023/11/09 10:48:15;;;;;;;1999.90;999.90;;;11.10;99.90;;;;;;5026780;28;20428;-68
2023/11/09 10:50:49;;;;;;;1999.90;999.90;;;11.20;99.90;;;;;;5027016;28;20417;-68
2023/11/09 10:53:18;;;;;;;1999.90;999.90;;;11.20;99.90;;;;;;5026706;28;20516;-68
2023/11/09 10:55:59;;;;;;;1999.90;999.90;;;11.20;99.90;;;;;;5026644;28;20415;-68
2023/11/09 10:58:26;;;;;;;1999.90;999.90;;;11.20;99.90;;;;;;5009309;28;20476;-68
2023/11/09 11:00:58;;;;;;;1999.90;999.90;;;11.30;99.90;;;;;;5027350;28;20442;-68
2023/11/09 11:03:39;;;;;;;1999.90;999.90;;;11.40;99.90;;;;;;5019384;28;20450;-68
2023/11/09 11:06:16;;;;;;;1999.90;999.90;;;11.40;99.90;;;;;;5027504;28;20413;-68
2023/11/09 11:08:44;;;;;;;1999.90;999.90;;;11.40;99.90;;;;;;5027227;28;20507;-69
2023/11/09 11:11:18;;;;;;;1999.90;999.90;;;11.50;99.90;;;;;;5026792;28;20446;-69
2023/11/09 11:13:53;;;;;;;1999.90;999.90;;;11.50;99.90;;;;;;5025843;28;20996;-70
2023/11/09 11:16:22;;;;;;;1999.90;999.90;;;11.60;99.90;;;;;;5026899;28;21000;-69
2023/11/09 11:19:23;;;;;;;1999.90;999.90;;;11.60;99.90;;;;;;5026538;28;20428;-69
2023/11/09 11:22:22;;;;;;;1999.90;999.90;;;11.60;99.90;;;;;;4997314;28;20454;-69
2023/11/09 11:24:53;;;;;;;1999.90;999.90;;;11.60;99.90;;;;;;5009094;28;20462;-68
2023/11/09 11:27:34;;;;;;;1999.90;999.90;;;11.60;99.90;;;;;;5026584;28;20434;-69
2023/11/09 11:30:13;;;;;;;1999.90;999.90;;;11.60;99.90;;;;;;5025545;28;20523;-69
2023/11/09 11:32:39;;;;;;;1999.90;999.90;;;11.70;99.90;;;;;;5026522;28;20491;-70
2023/11/09 11:35:06;;;;;;;1999.90;999.90;;;11.80;99.90;;;;;;5025817;28;20410;-70
2023/11/09 11:37:33;;;;;;;1999.90;999.90;;;12.00;99.90;;;;;;5027115;28;20540;-69
2023/11/09 11:40:10;;;;;;;1999.90;999.90;;;12.10;99.90;;;;;;5026491;28;20883;-69
2023/11/09 11:42:38;;;;;;;1999.90;999.90;;;12.20;99.90;;;;;;5026112;28;20542;-69
2023/11/09 11:45:07;;;;;;;1999.90;999.90;;;12.30;99.90;;;;;;5026350;28;20444;-68
2023/11/09 11:47:34;;;;;;;1999.90;999.90;;;12.40;99.90;;;;;;5026939;28;20420;-68
2023/11/09 11:50:04;;;;;;;1999.90;999.90;;;12.40;99.90;;;;;;5027415;28;20411;-69
2023/11/09 11:52:30;;;;;;;1999.90;999.90;;;12.50;99.90;;;;;;5029777;28;20977;-68
2023/11/09 11:55:05;;;;;;;1999.90;999.90;;;12.60;99.90;;;;;;5030640;28;20462;-68
2023/11/09 11:57:34;;;;;;;1999.90;999.90;;;12.60;99.90;;;;;;5030761;28;20211;-68
2023/11/09 12:00:08;;;;;;;1999.90;999.90;;;12.60;99.90;;;;;;5030174;28;20408;-68
2023/11/09 12:02:38;;;;;;;1999.90;999.90;;;12.50;99.90;;;;;;5029733;28;20727;-68
2023/11/09 12:05:06;;;;;;;1999.90;999.90;;;12.60;99.90;;;;;;5029852;28;20508;-68
2023/11/09 12:07:36;;;;;;;1999.90;999.90;;;12.60;99.90;;;;;;5029461;28;20420;-68
2023/11/09 12:10:05;;;;;;;1999.90;999.90;;;12.70;99.90;;;;;;5030113;28;20936;-68
2023/11/09 12:12:34;;;;;;;1999.90;999.90;;;12.70;99.90;;;;;;5029898;28;20425;-68